createdAt,value
2018-03-14T00:07:08.001Z,99.99
2018-03-14T00:17:07.977Z,99.99
2018-03-14T00:27:08.020Z,99.99
2018-03-14T00:37:08.004Z,99.99
2018-03-14T00:47:07.991Z,99.99
2018-03-14T00:57:08.017Z,99.99
2018-03-14T01:07:08.009Z,99.99
2018-03-14T01:17:07.931Z,99.99
2018-03-14T01:27:08.021Z,99.99
2018-03-14T01:37:07.965Z,99.99
2018-03-14T01:47:08.060Z,99.99
2018-03-14T01:57:08.033Z,99.99
2018-03-14T02:07:07.996Z,99.99
2018-03-14T02:17:08.011Z,99.99
2018-03-14T02:27:07.992Z,99.99
2018-03-14T02:37:07.952Z,99.99
2018-03-14T02:47:07.986Z,99.99
2018-03-14T02:57:07.947Z,99.99
2018-03-14T03:07:07.891Z,99.99
2018-03-14T03:17:07.976Z,99.99
2018-03-14T03:27:07.948Z,99.99
2018-03-14T03:37:07.894Z,99.99
2018-03-14T03:47:07.979Z,99.99
2018-03-14T03:57:07.941Z,99.99
2018-03-14T04:07:07.971Z,99.99
2018-03-14T04:17:07.949Z,99.99
2018-03-14T04:27:07.892Z,99.99
2018-03-14T04:37:07.960Z,99.99
2018-03-14T04:47:07.944Z,99.99
2018-03-14T04:57:07.901Z,99.99
2018-03-14T05:07:07.969Z,99.99
2018-03-14T05:17:07.941Z,99.99
2018-03-14T05:27:07.991Z,99.99
2018-03-14T05:37:07.928Z,99.99
2018-03-14T05:47:07.898Z,99.99
2018-03-14T05:57:07.957Z,99.99
2018-03-14T06:07:07.913Z,99.99
2018-03-14T06:17:07.871Z,99.99
2018-03-14T06:27:07.976Z,99.99
2018-03-14T06:37:10.024Z,99.99
2018-03-14T06:47:07.935Z,99.99
2018-03-14T06:57:07.994Z,99.99
2018-03-14T07:07:07.951Z,99.99
2018-03-14T07:17:08.018Z,99.99
2018-03-14T07:27:07.912Z,99.99
2018-03-14T07:37:07.865Z,99.99
2018-03-14T07:47:07.843Z,99.99
2018-03-14T07:57:07.914Z,99.99
2018-03-14T08:07:07.880Z,99.99
2018-03-14T08:17:07.917Z,99.99
2018-03-14T08:27:07.890Z,99.99
2018-03-14T08:37:07.966Z,99.99
2018-03-14T08:47:07.903Z,99.99
2018-03-14T08:57:07.889Z,99.99
2018-03-14T09:07:07.935Z,99.99
2018-03-14T09:17:07.880Z,99.99
2018-03-14T09:27:07.976Z,99.99
2018-03-14T09:37:07.939Z,99.99
2018-03-14T09:47:07.836Z,99.99
2018-03-14T09:57:07.870Z,98.22
2018-03-14T10:07:07.933Z,96.8
2018-03-14T10:17:07.833Z,96.65
2018-03-14T10:27:07.852Z,99.99
2018-03-14T10:37:07.865Z,99.99
2018-03-14T10:47:07.846Z,99.32
2018-03-14T10:57:07.863Z,99.99
2018-03-14T11:07:07.855Z,93.08
2018-03-14T11:17:07.871Z,89.5
2018-03-14T11:27:07.841Z,93.93
2018-03-14T11:37:07.819Z,89.26
2018-03-14T11:47:07.872Z,90.45
2018-03-14T11:57:07.853Z,88.07
2018-03-14T12:07:07.880Z,86.26
2018-03-14T12:17:07.840Z,84.59
2018-03-14T12:27:07.874Z,81.06
2018-03-14T12:37:07.858Z,80.05
2018-03-14T12:47:07.860Z,83.92
2018-03-14T12:57:07.857Z,84.69
2018-03-14T13:07:07.827Z,83.92
2018-03-14T13:17:07.871Z,85.25
2018-03-14T13:27:07.869Z,86.55
2018-03-14T13:37:07.844Z,81.44
2018-03-14T13:47:07.850Z,81.35
2018-03-14T13:57:07.869Z,83.64
2018-03-14T14:07:08.027Z,85.02
2018-03-14T14:17:07.942Z,88.89
2018-03-14T14:27:07.897Z,91.89
2018-03-14T14:37:07.878Z,95.56
2018-03-14T14:47:07.938Z,98.41
2018-03-14T14:57:07.918Z,98.88
2018-03-14T15:07:07.951Z,97.55
2018-03-14T15:17:07.932Z,98.88
2018-03-14T15:27:07.893Z,99.99
2018-03-14T15:37:07.949Z,99.5
2018-03-14T15:47:08.107Z,99.99
2018-03-14T15:57:07.920Z,99.88
2018-03-14T16:07:08.080Z,99.99
2018-03-14T16:17:07.896Z,99.99
2018-03-14T16:27:08.874Z,99.99
2018-03-14T16:37:07.980Z,99.99
2018-03-14T16:47:07.903Z,99.99
2018-03-14T16:57:07.978Z,99.99
2018-03-14T17:07:07.925Z,99.99
2018-03-14T17:17:07.928Z,99.99
2018-03-14T17:27:07.908Z,99.99
2018-03-14T17:37:07.896Z,99.99
2018-03-14T17:47:07.996Z,99.99
2018-03-14T17:57:08.097Z,99.99
2018-03-14T18:07:07.863Z,99.99
2018-03-14T18:17:07.872Z,99.99
2018-03-14T18:27:07.841Z,99.99
2018-03-14T18:37:07.828Z,99.99
2018-03-14T18:47:07.816Z,99.99
2018-03-14T18:57:07.810Z,99.99
2018-03-14T19:07:07.809Z,99.99
2018-03-14T19:17:07.811Z,99.99
2018-03-14T19:27:07.797Z,99.99
2018-03-14T19:37:07.796Z,99.99
2018-03-14T19:47:07.827Z,99.99
2018-03-14T19:57:07.815Z,99.99
2018-03-14T20:07:07.825Z,99.99
2018-03-14T20:17:07.806Z,99.99
2018-03-14T20:27:07.802Z,99.99
2018-03-14T20:37:07.805Z,99.99
2018-03-14T20:47:07.889Z,99.99
2018-03-14T20:57:07.808Z,99.99
2018-03-14T21:07:07.850Z,99.99
2018-03-14T21:17:07.832Z,99.99
2018-03-14T21:27:07.921Z,99.99
2018-03-14T21:37:07.859Z,99.99
2018-03-14T21:47:08.200Z,99.99
2018-03-14T21:57:07.894Z,99.99
2018-03-14T22:07:08.064Z,99.99
2018-03-14T22:17:07.806Z,99.99
2018-03-14T22:27:07.841Z,99.99
2018-03-14T22:37:07.909Z,99.99
2018-03-14T22:47:07.801Z,99.99
2018-03-14T22:57:07.861Z,99.99
2018-03-14T23:07:07.830Z,99.99
2018-03-14T23:17:07.792Z,99.99
2018-03-14T23:27:07.873Z,99.99
2018-03-14T23:37:07.811Z,99.99
2018-03-14T23:47:07.761Z,99.99
2018-03-14T23:57:07.837Z,99.99
